createdAt,value
2022-09-14T00:00:36.607Z,2.90
2022-09-14T00:03:03.300Z,2.88
2022-09-14T00:05:29.875Z,3.15
2022-09-14T00:07:56.487Z,2.97
2022-09-14T00:10:23.351Z,3.30
2022-09-14T00:12:49.849Z,3.60
2022-09-14T00:15:16.461Z,5.88
2022-09-14T00:17:43.088Z,5.82
2022-09-14T00:20:10.085Z,4.57
2022-09-14T00:22:36.679Z,4.28
2022-09-14T00:25:03.773Z,4.88
2022-09-14T00:27:30.435Z,5.03
2022-09-14T00:29:56.956Z,4.53
2022-09-14T00:32:23.487Z,4.18
2022-09-14T00:34:50.116Z,3.88
2022-09-14T00:37:16.695Z,3.55
2022-09-14T00:39:43.385Z,3.70
2022-09-14T00:42:15.803Z,4.00
2022-09-14T00:44:42.274Z,4.32
2022-09-14T00:47:08.954Z,4.93
2022-09-14T00:49:39.864Z,4.40
2022-09-14T00:52:21.893Z,5.07
2022-09-14T00:54:56.621Z,4.82
2022-09-14T00:57:24.663Z,4.88
2022-09-14T00:59:53.098Z,4.80
2022-09-14T01:02:22.266Z,5.35
2022-09-14T01:04:50.235Z,5.55
2022-09-14T01:07:43.250Z,4.72
2022-09-14T01:10:10.148Z,4.97
2022-09-14T01:13:06.621Z,5.10
2022-09-14T01:15:45.215Z,5.10
2022-09-14T01:18:17.603Z,4.80
2022-09-14T01:20:59.363Z,4.80
2022-09-14T01:23:49.106Z,4.70
2022-09-14T01:26:39.879Z,4.72
2022-09-14T01:29:12.391Z,4.97
2022-09-14T01:31:50.300Z,4.25
2022-09-14T01:34:34.159Z,4.13
2022-09-14T01:37:22.433Z,3.90
2022-09-14T01:39:57.722Z,4.47
2022-09-14T01:42:27.435Z,4.40
2022-09-14T01:45:01.711Z,5.13
2022-09-14T01:47:42.888Z,5.32
2022-09-14T01:50:24.813Z,5.13
2022-09-14T01:53:14.063Z,5.45
2022-09-14T01:55:43.921Z,5.63
2022-09-14T01:58:31.403Z,4.85
2022-09-14T02:01:02.401Z,5.05
2022-09-14T02:03:35.740Z,5.53
2022-09-14T02:06:09.476Z,5.90
2022-09-14T02:08:36.302Z,5.22
2022-09-14T02:11:02.963Z,5.78
2022-09-14T02:13:29.788Z,5.70
2022-09-14T02:15:56.506Z,5.85
2022-09-14T02:18:23.131Z,6.05
2022-09-14T02:21:07.163Z,6.18
2022-09-14T02:23:35.743Z,6.30
2022-09-14T02:26:02.272Z,6.45
2022-09-14T02:28:28.845Z,7.40
2022-09-14T02:31:25.708Z,6.57
2022-09-14T02:34:13.914Z,6.95
2022-09-14T02:36:51.710Z,7.18
2022-09-14T02:39:35.411Z,7.63
2022-09-14T02:42:20.146Z,7.80
2022-09-14T02:44:59.043Z,7.70
2022-09-14T02:47:40.695Z,7.97
2022-09-14T02:50:35.105Z,8.40
2022-09-14T02:53:14.331Z,8.68
2022-09-14T02:55:46.919Z,10.18
2022-09-14T02:58:14.970Z,10.68
2022-09-14T03:00:50.753Z,10.43
2022-09-14T03:03:19.947Z,10.18
2022-09-14T03:05:47.596Z,10.80
2022-09-14T03:08:14.799Z,10.32
2022-09-14T03:10:44.817Z,9.95
2022-09-14T03:13:12.413Z,10.63
2022-09-14T03:15:39.208Z,10.32
2022-09-14T03:18:10.005Z,11.18
2022-09-14T03:20:38.924Z,11.45
2022-09-14T03:23:07.217Z,10.82
2022-09-14T03:25:40.472Z,10.75
2022-09-14T03:28:07.859Z,11.10
2022-09-14T03:30:35.420Z,10.20
2022-09-14T03:33:02.172Z,10.63
2022-09-14T03:35:31.429Z,10.77
2022-09-14T03:37:59.480Z,10.10
2022-09-14T03:40:27.619Z,9.70
2022-09-14T03:42:54.462Z,9.88
2022-09-14T03:45:21.848Z,9.30
2022-09-14T03:47:49.031Z,9.52
2022-09-14T03:50:17.201Z,8.85
2022-09-14T03:52:43.942Z,9.23
2022-09-14T03:55:10.799Z,9.23
2022-09-14T03:57:37.597Z,8.63
2022-09-14T04:00:06.699Z,9.20
2022-09-14T04:02:33.330Z,8.25
2022-09-14T04:04:59.914Z,9.40
2022-09-14T04:07:26.686Z,9.05
2022-09-14T04:09:53.227Z,8.15
2022-09-14T04:12:19.775Z,7.75
2022-09-14T04:14:46.309Z,8.15
2022-09-14T04:17:12.852Z,9.73
2022-09-14T04:19:40.962Z,8.30
2022-09-14T04:22:07.877Z,9.63
2022-09-14T04:24:34.659Z,9.90
2022-09-14T04:27:01.161Z,10.45
2022-09-14T04:29:30.474Z,11.80
2022-09-14T04:31:57.418Z,10.43
2022-09-14T04:34:23.983Z,11.57
2022-09-14T04:36:50.687Z,11.20
2022-09-14T04:39:17.307Z,10.88
2022-09-14T04:41:44.084Z,12.23
2022-09-14T04:44:10.823Z,11.23
2022-09-14T04:46:43.619Z,10.98
2022-09-14T04:49:13.067Z,11.73
2022-09-14T04:51:39.711Z,11.15
2022-09-14T04:54:07.243Z,11.48
2022-09-14T04:56:36.001Z,11.70
2022-09-14T04:59:04.423Z,10.88
2022-09-14T05:01:34.517Z,8.38
2022-09-14T05:04:01.352Z,5.72
2022-09-14T05:06:31.074Z,6.75
2022-09-14T05:08:59.167Z,5.93
2022-09-14T05:11:29.323Z,5.18
2022-09-14T05:13:57.237Z,5.47
2022-09-14T05:16:25.400Z,5.85
2022-09-14T05:18:55.048Z,4.75
2022-09-14T05:21:22.956Z,5.03
2022-09-14T05:23:57.967Z,4.72
2022-09-14T05:26:26.827Z,4.80
2022-09-14T05:28:56.826Z,4.57
2022-09-14T05:31:25.174Z,4.82
2022-09-14T05:33:52.253Z,4.78
2022-09-14T05:36:19.629Z,4.47
2022-09-14T05:38:46.624Z,4.68
2022-09-14T05:41:14.519Z,4.93
2022-09-14T05:43:42.081Z,5.15
2022-09-14T05:46:12.357Z,4.93
2022-09-14T05:48:40.250Z,4.85
2022-09-14T05:51:10.814Z,3.72
2022-09-14T05:53:37.503Z,4.68
2022-09-14T05:56:09.513Z,4.22
2022-09-14T05:58:37.256Z,4.85
2022-09-14T06:01:16.061Z,5.05
2022-09-14T06:03:43.764Z,4.72
2022-09-14T06:06:12.361Z,3.90
2022-09-14T06:08:39.479Z,5.68
2022-09-14T06:11:07.504Z,4.80
2022-09-14T06:13:34.520Z,4.82
2022-09-14T06:16:09.758Z,4.35
2022-09-14T06:18:37.768Z,5.43
2022-09-14T06:21:05.574Z,4.35
2022-09-14T06:23:33.284Z,5.20
2022-09-14T06:26:02.566Z,5.72
2022-09-14T06:28:30.311Z,5.72
2022-09-14T06:30:57.755Z,5.95
2022-09-14T06:33:25.022Z,6.97
2022-09-14T06:36:12.908Z,5.93
2022-09-14T06:38:40.512Z,7.03
2022-09-14T06:41:09.484Z,7.65
2022-09-14T06:43:41.255Z,9.93
2022-09-14T06:46:23.604Z,7.90
2022-09-14T06:48:56.054Z,8.25
2022-09-14T06:51:32.777Z,6.82
2022-09-14T06:54:00.971Z,7.95
2022-09-14T06:56:38.950Z,9.65
2022-09-14T06:59:07.265Z,8.95
2022-09-14T07:01:34.479Z,7.95
2022-09-14T07:04:01.671Z,12.07
2022-09-14T07:06:31.018Z,7.78
2022-09-14T07:08:58.170Z,10.25
2022-09-14T07:11:27.104Z,10.20
2022-09-14T07:13:57.319Z,8.32
2022-09-14T07:16:26.465Z,8.20
2022-09-14T07:18:58.086Z,7.82
2022-09-14T07:21:25.565Z,8.57
2022-09-14T07:23:52.528Z,7.43
2022-09-14T07:26:25.002Z,9.60
2022-09-14T07:28:55.517Z,10.93
2022-09-14T07:31:28.213Z,7.28
2022-09-14T07:33:56.840Z,7.50
2022-09-14T07:36:25.179Z,7.03
2022-09-14T07:38:53.442Z,7.60
2022-09-14T07:41:25.599Z,7.95
2022-09-14T07:46:20.281Z,8.40
2022-09-14T07:48:48.145Z,6.40
2022-09-14T07:51:14.952Z,10.60
2022-09-14T07:53:43.252Z,6.47
2022-09-14T07:56:11.583Z,10.05
2022-09-14T07:58:38.495Z,10.98
2022-09-14T08:01:12.152Z,7.88
2022-09-14T08:03:40.745Z,13.65
2022-09-14T08:06:10.894Z,8.30
2022-09-14T08:08:42.060Z,9.40
2022-09-14T08:11:42.848Z,8.40
2022-09-14T08:14:11.623Z,9.15
2022-09-14T08:16:39.143Z,11.68
2022-09-14T08:19:10.825Z,11.07
2022-09-14T08:21:37.389Z,9.00
2022-09-14T08:24:04.862Z,10.13
2022-09-14T08:26:31.899Z,10.35
2022-09-14T08:29:00.530Z,11.93
2022-09-14T08:31:28.535Z,16.98
2022-09-14T08:33:56.526Z,12.27
2022-09-14T08:36:24.529Z,14.10
2022-09-14T08:38:51.503Z,16.45
2022-09-14T08:41:55.236Z,14.13
2022-09-14T08:44:58.949Z,12.55
2022-09-14T08:47:32.339Z,16.30
2022-09-14T08:50:06.139Z,12.90
2022-09-14T08:52:39.304Z,13.23
2022-09-14T08:55:24.525Z,15.45
2022-09-14T08:58:01.543Z,16.35
2022-09-14T09:00:55.508Z,19.15
2022-09-14T09:03:45.489Z,18.98
2022-09-14T09:06:22.484Z,17.42
2022-09-14T09:09:02.769Z,14.82
2022-09-14T09:11:46.698Z,13.35
2022-09-14T09:14:31.196Z,15.38
2022-09-14T09:17:01.643Z,14.32
2022-09-14T09:19:41.382Z,14.82
2022-09-14T09:22:15.098Z,12.65
2022-09-14T09:24:50.542Z,13.07
2022-09-14T09:27:17.144Z,11.82
2022-09-14T09:29:44.123Z,12.73
2022-09-14T09:32:25.093Z,12.25
2022-09-14T09:34:51.991Z,12.60
2022-09-14T09:37:23.367Z,11.35
2022-09-14T09:39:50.770Z,12.25
2022-09-14T09:42:21.863Z,11.90
2022-09-14T09:45:04.074Z,12.68
2022-09-14T09:47:35.529Z,11.32
2022-09-14T09:50:06.658Z,11.95
2022-09-14T09:52:34.730Z,10.32
2022-09-14T09:55:03.012Z,12.68
2022-09-14T09:57:33.013Z,11.43
2022-09-14T10:00:11.715Z,10.85
2022-09-14T10:02:38.445Z,10.30
2022-09-14T10:05:11.151Z,9.05
2022-09-14T10:07:50.916Z,9.30
2022-09-14T10:10:20.387Z,9.55
2022-09-14T10:12:55.834Z,10.07
2022-09-14T10:15:31.812Z,9.27
2022-09-14T10:18:08.346Z,9.40
2022-09-14T10:20:37.238Z,9.52
2022-09-14T10:23:19.190Z,10.02
2022-09-14T10:28:33.671Z,9.60
2022-09-14T10:31:09.435Z,7.00
2022-09-14T10:33:36.949Z,5.15
2022-09-14T10:36:06.573Z,6.55
2022-09-14T10:38:42.617Z,5.25
2022-09-14T10:41:40.102Z,4.50
2022-09-14T10:44:22.849Z,4.05
2022-09-14T10:47:09.277Z,3.80
2022-09-14T10:49:48.263Z,3.63
2022-09-14T10:52:38.108Z,4.00
2022-09-14T10:55:07.315Z,3.20
2022-09-14T10:57:50.941Z,3.78
2022-09-14T11:00:20.240Z,3.70
2022-09-14T11:02:46.765Z,3.13
2022-09-14T11:05:30.727Z,2.92
2022-09-14T11:08:11.623Z,3.75
2022-09-14T11:11:01.187Z,3.05
2022-09-14T11:13:58.162Z,3.35
2022-09-14T11:16:44.348Z,3.20
2022-09-14T11:19:19.392Z,2.88
2022-09-14T11:21:56.782Z,3.20
2022-09-14T11:24:26.744Z,2.70
2022-09-14T11:27:08.821Z,2.97
2022-09-14T11:29:43.123Z,2.60
2022-09-14T11:32:22.051Z,3.15
2022-09-14T11:34:58.222Z,3.00
2022-09-14T11:37:58.375Z,2.67
2022-09-14T11:40:31.967Z,2.50
2022-09-14T11:43:06.030Z,2.50
2022-09-14T11:45:40.212Z,2.50
2022-09-14T11:48:42.714Z,2.58
2022-09-14T11:51:15.478Z,2.70
2022-09-14T11:53:43.724Z,2.72
2022-09-14T11:56:26.870Z,2.60
2022-09-14T11:59:03.605Z,2.60
2022-09-14T12:01:37.692Z,2.35
2022-09-14T12:04:08.839Z,2.30
2022-09-14T12:06:38.371Z,2.80
2022-09-14T12:09:31.882Z,2.78
2022-09-14T12:11:59.095Z,2.80
2022-09-14T12:14:29.595Z,2.35
2022-09-14T12:17:39.281Z,2.72
2022-09-14T12:20:36.732Z,2.35
2022-09-14T12:23:15.288Z,2.33
2022-09-14T12:25:53.318Z,2.70
2022-09-14T12:28:40.686Z,2.03
2022-09-14T12:31:33.031Z,2.40
2022-09-14T12:34:14.415Z,1.95
2022-09-14T12:36:40.877Z,2.40
2022-09-14T12:39:24.858Z,2.30
2022-09-14T12:41:51.329Z,2.45
2022-09-14T12:44:33.135Z,2.10
2022-09-14T12:47:25.434Z,2.20
2022-09-14T12:50:22.856Z,2.00
2022-09-14T12:53:13.534Z,2.03
2022-09-14T12:55:52.623Z,1.80
2022-09-14T12:58:25.525Z,2.15
2022-09-14T13:01:19.115Z,2.00
2022-09-14T13:03:55.020Z,2.25
2022-09-14T13:06:23.988Z,1.83
2022-09-14T13:08:55.524Z,2.17
2022-09-14T13:11:41.324Z,2.35
2022-09-14T13:14:24.070Z,2.17
2022-09-14T13:16:52.382Z,2.15
2022-09-14T13:19:30.866Z,2.28
2022-09-14T13:22:00.107Z,1.75
2022-09-14T13:24:47.786Z,2.35
2022-09-14T13:27:42.193Z,1.88
2022-09-14T13:30:11.725Z,2.20
2022-09-14T13:32:43.376Z,2.22
2022-09-14T13:35:38.924Z,2.28
2022-09-14T13:38:14.131Z,2.05
2022-09-14T13:40:40.759Z,1.98
2022-09-14T13:43:08.016Z,2.22
2022-09-14T13:45:35.249Z,1.83
2022-09-14T13:48:02.374Z,2.00
2022-09-14T13:50:29.042Z,2.50
2022-09-14T13:53:04.144Z,2.20
2022-09-14T13:55:33.933Z,2.08
2022-09-14T13:58:07.624Z,2.30
2022-09-14T14:00:53.797Z,2.45
2022-09-14T14:03:42.272Z,2.38
2022-09-14T14:06:26.040Z,2.47
2022-09-14T14:08:56.823Z,2.28
2022-09-14T14:11:29.122Z,2.17
2022-09-14T14:13:55.947Z,2.20
2022-09-14T14:16:26.525Z,2.08
2022-09-14T14:18:56.174Z,2.22
2022-09-14T14:21:22.788Z,2.30
2022-09-14T14:24:12.044Z,2.28
2022-09-14T14:26:38.432Z,2.15
2022-09-14T14:29:09.683Z,2.30
2022-09-14T14:31:36.224Z,2.40
2022-09-14T14:34:21.171Z,2.10
2022-09-14T14:36:50.002Z,2.40
2022-09-14T14:39:18.696Z,2.20
2022-09-14T14:41:45.579Z,2.40
2022-09-14T14:44:17.585Z,2.10
2022-09-14T14:46:45.652Z,2.50
2022-09-14T14:49:14.112Z,2.20
2022-09-14T14:51:41.226Z,2.50
2022-09-14T14:54:10.303Z,2.33
2022-09-14T14:56:38.538Z,2.28
2022-09-14T14:59:35.729Z,2.08
2022-09-14T15:02:02.511Z,2.13
2022-09-14T15:04:29.087Z,2.45
2022-09-14T15:06:55.720Z,1.83
2022-09-14T15:09:26.113Z,2.05
2022-09-14T15:11:54.685Z,2.40
2022-09-14T15:14:26.743Z,2.40
2022-09-14T15:16:57.927Z,1.75
2022-09-14T15:19:25.008Z,2.03
2022-09-14T15:21:51.711Z,2.55
2022-09-14T15:24:18.250Z,1.90
2022-09-14T15:26:45.071Z,1.88
2022-09-14T15:29:17.652Z,2.00
2022-09-14T15:31:44.474Z,2.10
2022-09-14T15:34:11.026Z,2.13
2022-09-14T15:36:47.953Z,2.10
2022-09-14T15:39:15.140Z,2.30
2022-09-14T15:41:42.483Z,1.85
2022-09-14T15:44:09.555Z,1.80
2022-09-14T15:46:36.457Z,2.10
2022-09-14T15:49:27.441Z,2.35
2022-09-14T15:51:55.843Z,1.98
2022-09-14T15:54:24.650Z,1.90
2022-09-14T15:56:55.027Z,2.05
2022-09-14T15:59:22.344Z,1.77
2022-09-14T16:01:49.558Z,1.77
2022-09-14T16:04:16.770Z,1.92
2022-09-14T16:06:43.510Z,2.10
2022-09-14T16:09:11.825Z,2.45
2022-09-14T16:11:39.745Z,2.63
2022-09-14T16:14:07.858Z,2.30
2022-09-14T16:16:35.311Z,2.05
2022-09-14T16:19:06.591Z,1.73
2022-09-14T16:21:33.374Z,2.15
2022-09-14T16:24:02.464Z,2.00
2022-09-14T16:26:33.531Z,2.65
2022-09-14T16:29:00.666Z,2.20
2022-09-14T16:31:32.807Z,1.85
2022-09-14T16:34:03.594Z,1.75
2022-09-14T16:36:33.273Z,1.92
2022-09-14T16:39:02.243Z,2.17
2022-09-14T16:41:29.655Z,1.95
2022-09-14T16:43:58.223Z,2.53
2022-09-14T16:46:26.960Z,2.00
2022-09-14T16:48:53.777Z,2.00
2022-09-14T16:51:24.037Z,1.90
2022-09-14T16:53:51.758Z,1.63
2022-09-14T16:56:22.236Z,1.50
2022-09-14T16:58:50.787Z,1.77
2022-09-14T17:01:17.299Z,1.80
2022-09-14T17:03:45.766Z,1.98
2022-09-14T17:06:14.675Z,1.95
2022-09-14T17:08:44.022Z,2.10
2022-09-14T17:11:12.095Z,1.77
2022-09-14T17:13:39.591Z,2.38
2022-09-14T17:16:09.144Z,1.92
2022-09-14T17:18:38.838Z,1.95
2022-09-14T17:21:09.241Z,2.05
2022-09-14T17:23:36.242Z,1.90
2022-09-14T17:26:05.600Z,1.92
2022-09-14T17:28:33.308Z,2.00
2022-09-14T17:31:01.416Z,2.10
2022-09-14T17:33:28.835Z,1.92
2022-09-14T17:35:58.356Z,1.90
2022-09-14T17:38:27.552Z,1.85
2022-09-14T17:41:01.845Z,1.55
2022-09-14T17:43:28.417Z,1.75
2022-09-14T17:45:56.809Z,1.60
2022-09-14T17:48:24.782Z,1.60
2022-09-14T17:50:51.607Z,1.48
2022-09-14T17:53:18.311Z,1.13
2022-09-14T17:55:44.931Z,1.02
2022-09-14T17:58:12.374Z,1.38
2022-09-14T18:00:41.152Z,1.13
2022-09-14T18:03:09.373Z,1.00
2022-09-14T18:05:38.901Z,1.00
2022-09-14T18:08:06.609Z,0.80
2022-09-14T18:10:36.091Z,0.82
2022-09-14T18:13:02.660Z,1.00
2022-09-14T18:15:30.989Z,1.50
2022-09-14T18:17:57.840Z,1.60
2022-09-14T18:20:24.406Z,2.50
2022-09-14T18:22:50.963Z,2.22
2022-09-14T18:25:17.687Z,1.92
2022-09-14T18:27:44.196Z,2.20
2022-09-14T18:30:11.201Z,2.25
2022-09-14T18:32:37.801Z,2.08
2022-09-14T18:35:04.751Z,2.20
2022-09-14T18:37:31.383Z,1.90
2022-09-14T18:39:58.097Z,2.22
2022-09-14T18:42:24.677Z,1.52
2022-09-14T18:44:53.927Z,1.55
2022-09-14T18:47:22.429Z,2.08
2022-09-14T18:49:50.033Z,2.03
2022-09-14T18:52:19.413Z,1.80
2022-09-14T18:54:45.960Z,1.65
2022-09-14T18:57:12.596Z,2.10
2022-09-14T18:59:39.154Z,2.60
2022-09-14T19:02:05.820Z,2.45
2022-09-14T19:04:32.457Z,2.72
2022-09-14T19:06:59.042Z,2.47
2022-09-14T19:09:25.893Z,1.90
2022-09-14T19:11:52.444Z,2.10
2022-09-14T19:14:20.615Z,2.00
2022-09-14T19:16:47.319Z,1.95
2022-09-14T19:19:15.320Z,2.22
2022-09-14T19:21:42.765Z,1.95
2022-09-14T19:24:16.805Z,1.83
2022-09-14T19:26:49.264Z,2.20
2022-09-14T19:29:20.051Z,2.72
2022-09-14T19:31:51.001Z,2.40
2022-09-14T19:34:22.811Z,2.75
2022-09-14T19:36:49.928Z,2.50
2022-09-14T19:39:16.548Z,2.33
2022-09-14T19:41:43.138Z,2.92
2022-09-14T19:44:11.099Z,2.78
2022-09-14T19:46:39.775Z,2.47
2022-09-14T19:49:19.826Z,2.00
2022-09-14T19:51:47.179Z,1.80
2022-09-14T19:54:13.975Z,1.80
2022-09-14T19:56:41.243Z,1.85
2022-09-14T19:59:08.625Z,1.92
2022-09-14T20:01:37.523Z,2.08
2022-09-14T20:04:05.701Z,2.00
2022-09-14T20:06:40.213Z,1.35
2022-09-14T20:09:09.908Z,1.40
2022-09-14T20:11:38.304Z,1.08
2022-09-14T20:14:07.207Z,0.98
2022-09-14T20:16:36.421Z,1.00
2022-09-14T20:19:07.269Z,0.90
2022-09-14T20:21:37.510Z,0.85
2022-09-14T20:24:22.000Z,1.00
2022-09-14T20:26:50.372Z,0.88
2022-09-14T20:29:18.563Z,1.10
2022-09-14T20:31:46.004Z,1.10
2022-09-14T20:34:14.124Z,0.95
2022-09-14T20:36:41.290Z,1.02
2022-09-14T20:39:07.891Z,1.10
2022-09-14T20:41:35.756Z,1.08
2022-09-14T20:44:03.555Z,1.10
2022-09-14T20:46:38.673Z,1.10
2022-09-14T20:49:08.651Z,1.10
2022-09-14T20:51:36.768Z,1.02
2022-09-14T20:54:05.117Z,0.80
2022-09-14T20:56:33.819Z,0.80
2022-09-14T20:59:03.665Z,1.08
2022-09-14T21:01:32.830Z,0.95
2022-09-14T21:04:09.086Z,1.00
2022-09-14T21:06:38.278Z,0.80
2022-09-14T21:09:06.535Z,0.90
2022-09-14T21:11:33.637Z,1.10
2022-09-14T21:14:00.562Z,1.00
2022-09-14T21:16:29.963Z,0.98
2022-09-14T21:18:59.015Z,0.90
2022-09-14T21:21:26.736Z,1.00
2022-09-14T21:23:55.870Z,1.40
2022-09-14T21:26:23.225Z,1.20
2022-09-14T21:28:55.556Z,1.40
2022-09-14T21:31:24.105Z,1.05
2022-09-14T21:33:52.756Z,1.17
2022-09-14T21:36:23.668Z,1.38
2022-09-14T21:38:52.215Z,1.20
2022-09-14T21:41:19.963Z,1.10
2022-09-14T21:43:47.158Z,1.58
2022-09-14T21:46:14.624Z,1.45
2022-09-14T21:48:41.875Z,1.90
2022-09-14T21:51:35.794Z,1.27
2022-09-14T21:54:09.216Z,1.70
2022-09-14T21:56:38.529Z,1.38
2022-09-14T21:59:10.500Z,1.40
2022-09-14T22:04:04.879Z,1.45
2022-09-14T22:06:32.648Z,1.42
2022-09-14T22:09:01.076Z,1.80
2022-09-14T22:11:31.492Z,1.60
2022-09-14T22:14:13.153Z,1.50
2022-09-14T22:16:40.520Z,2.25
2022-09-14T22:19:12.564Z,1.70
2022-09-14T22:24:09.860Z,1.67
2022-09-14T22:26:39.649Z,2.08
2022-09-14T22:29:08.776Z,1.67
2022-09-14T22:31:36.959Z,1.95
2022-09-14T22:34:03.499Z,1.92
2022-09-14T22:36:30.075Z,1.88
2022-09-14T22:38:58.674Z,1.80
2022-09-14T22:41:27.402Z,2.00
2022-09-14T22:43:54.757Z,2.08
2022-09-14T22:46:22.833Z,1.88
2022-09-14T22:48:50.656Z,1.80
2022-09-14T22:51:20.404Z,1.83
2022-09-14T22:53:47.403Z,2.13
2022-09-14T22:56:19.316Z,2.30
2022-09-14T23:01:16.868Z,1.88
2022-09-14T23:03:43.916Z,1.80
2022-09-14T23:06:10.760Z,2.05
2022-09-14T23:08:38.179Z,2.08
2022-09-14T23:11:07.299Z,1.98
2022-09-14T23:13:40.621Z,2.28
2022-09-14T23:16:15.500Z,2.47
2022-09-14T23:18:42.942Z,2.15
2022-09-14T23:21:10.060Z,2.40
2022-09-14T23:23:38.367Z,2.20
2022-09-14T23:26:10.782Z,1.90
2022-09-14T23:28:38.119Z,2.10
2022-09-14T23:31:05.894Z,2.30
2022-09-14T23:33:32.844Z,2.40
2022-09-14T23:35:59.427Z,2.25
2022-09-14T23:38:26.517Z,2.10
2022-09-14T23:40:53.186Z,2.40
2022-09-14T23:43:20.240Z,2.50
2022-09-14T23:45:48.200Z,2.50
2022-09-14T23:48:15.661Z,2.78
2022-09-14T23:50:42.295Z,2.70
2022-09-14T23:53:09.059Z,2.63
2022-09-14T23:55:35.663Z,2.28
2022-09-14T23:58:02.468Z,2.45
